Time;durP1;ratioP1;P1;durP2;ratioP2;P2;SDS_P1;SDS_P2;PMS_P1;PMS_P2;Temp;Humidity;BMP_temperature;BMP_pressure;BME280_temperature;BME280_humidity;BME280_pressure;Samples;Min_cycle;Max_cycle;Signal;HPM_P1;HPM_P2
2023/02/23 00:03:32;;;;;;;11.90;6.60;;;;;;;-1.08;71.83;100151.52;218506;1261;140930;-65
2023/02/23 00:08:36;;;;;;;17.00;7.10;;;;;;;-1.03;72.00;100150.61;220003;1259;140358;-67
2023/02/23 00:13:41;;;;;;;10.90;5.50;;;;;;;-1.02;71.72;100149.61;217729;1257;139970;-63
2023/02/23 00:18:59;;;;;;;11.50;7.20;;;;;;;-1.05;71.65;100143.04;217088;1261;139890;-62
2023/02/23 00:24:08;;;;;;;11.30;6.40;;;;;;;-1.06;71.62;100137.95;218079;1259;140206;-64
2023/02/23 00:29:17;;;;;;;10.30;5.40;;;;;;;-1.09;71.68;100140.81;217115;1261;140073;-64
2023/02/23 00:34:22;;;;;;;9.90;6.70;;;;;;;-1.09;71.75;100134.77;217275;1258;140402;-62
2023/02/23 00:39:27;;;;;;;10.70;6.40;;;;;;;-1.11;71.55;100132.88;218664;1259;139207;-62
2023/02/23 00:44:39;;;;;;;11.90;6.90;;;;;;;-1.19;71.66;100134.83;217046;1260;140243;-61
2023/02/23 00:49:43;;;;;;;12.00;5.50;;;;;;;-1.26;71.58;100132.95;217899;1258;141123;-61
2023/02/23 00:54:46;;;;;;;13.00;7.50;;;;;;;-1.36;71.83;100134.73;217927;1258;141771;-65
2023/02/23 00:59:49;;;;;;;9.30;5.40;;;;;;;-1.42;71.76;100132.60;218650;1261;139836;-63
2023/02/23 01:04:54;;;;;;;12.70;7.00;;;;;;;-1.46;71.96;100134.73;217541;1259;139353;-61
2023/02/23 01:09:56;;;;;;;12.20;7.40;;;;;;;-1.53;72.11;100132.23;217954;1258;139422;-62
2023/02/23 01:15:02;;;;;;;11.50;7.20;;;;;;;-1.55;72.31;100128.25;218157;1258;139601;-63
2023/02/23 01:20:21;;;;;;;12.70;8.50;;;;;;;-1.53;72.43;100127.16;217542;1259;140352;-63
2023/02/23 01:25:27;;;;;;;15.50;7.60;;;;;;;-1.51;72.62;100123.23;217985;1259;139629;-59
2023/02/23 01:30:31;;;;;;;17.20;10.50;;;;;;;-1.51;72.67;100121.24;217205;1258;225115;-62
2023/02/23 01:35:34;;;;;;;15.70;8.50;;;;;;;-1.54;72.53;100120.00;219172;1259;140515;-63
2023/02/23 01:40:38;;;;;;;13.60;7.80;;;;;;;-1.57;72.69;100113.87;218197;1257;139653;-62
2023/02/23 01:45:43;;;;;;;11.40;7.80;;;;;;;-1.61;72.65;100110.27;217650;1259;139948;-62
2023/02/23 01:50:58;;;;;;;12.00;8.60;;;;;;;-1.66;72.87;100106.19;218466;1258;139635;-64
2023/02/23 01:56:17;;;;;;;17.20;9.50;;;;;;;-1.71;73.02;100101.20;220181;1257;140724;-62
2023/02/23 02:01:22;;;;;;;13.30;7.60;;;;;;;-1.73;73.00;100094.98;218306;1261;139826;-64
2023/02/23 02:06:28;;;;;;;16.90;7.40;;;;;;;-1.81;73.14;100092.78;217235;1259;139896;-65
2023/02/23 02:11:37;;;;;;;13.20;7.30;;;;;;;-1.84;73.27;100088.09;219417;1261;140003;-64
2023/02/23 02:16:47;;;;;;;20.50;10.10;;;;;;;-1.90;73.10;100089.36;218265;1257;139900;-64
2023/02/23 02:22:27;;;;;;;14.80;8.50;;;;;;;-1.91;73.60;100082.63;218493;1259;139975;-61
2023/02/23 02:28:09;;;;;;;13.90;7.70;;;;;;;-1.93;73.45;100081.77;217707;1261;140015;-62
2023/02/23 02:33:57;;;;;;;14.40;7.20;;;;;;;-1.94;73.74;100082.95;218658;1261;139267;-61
2023/02/23 02:39:35;;;;;;;16.40;9.60;;;;;;;-1.96;73.76;100083.45;217505;1259;140353;-62
2023/02/23 02:45:03;;;;;;;14.30;8.20;;;;;;;-2.01;73.85;100078.03;217823;1260;139361;-62
2023/02/23 02:50:09;;;;;;;19.20;9.20;;;;;;;-2.07;73.97;100066.14;217243;1261;139550;-63
2023/02/23 02:55:26;;;;;;;15.00;8.90;;;;;;;-2.12;74.16;100063.05;217497;1260;139478;-62
2023/02/23 04:17:58;;;;;;;16.10;8.80;;;;;;;-2.54;75.40;100043.34;219171;1257;140536;-63
2023/02/23 04:23:02;;;;;;;17.90;9.80;;;;;;;-2.55;75.48;100039.06;217574;1259;139855;-62
2023/02/23 04:28:05;;;;;;;28.90;11.90;;;;;;;-2.56;75.67;100040.23;218070;1257;140197;-62
2023/02/23 04:33:09;;;;;;;40.40;17.50;;;;;;;-2.56;75.62;100038.48;218298;1257;139969;-62
2023/02/23 04:38:13;;;;;;;51.80;19.60;;;;;;;-2.59;75.78;100037.18;217763;1258;139768;-61
2023/02/23 04:43:15;;;;;;;22.40;10.90;;;;;;;-2.60;75.97;100031.90;217556;1261;141838;-62
2023/02/23 04:48:18;;;;;;;37.70;13.70;;;;;;;-2.63;76.20;100029.60;217606;1257;140489;-62
2023/02/23 04:53:22;;;;;;;28.10;11.80;;;;;;;-2.62;76.19;100028.12;218626;1257;139939;-64
2023/02/23 04:58:26;;;;;;;44.40;17.50;;;;;;;-2.63;76.28;100028.70;218659;1261;139914;-62
2023/02/23 05:03:29;;;;;;;19.50;9.50;;;;;;;-2.63;76.28;100026.61;218191;1257;140409;-63
2023/02/23 05:08:31;;;;;;;15.20;7.80;;;;;;;-2.63;76.44;100023.48;217438;1257;139603;-62
2023/02/23 05:13:34;;;;;;;25.10;9.20;;;;;;;-2.63;76.63;100018.80;217978;1260;139112;-63
2023/02/23 05:18:36;;;;;;;12.80;7.70;;;;;;;-2.63;76.51;100014.73;218333;1261;140080;-63
2023/02/23 05:23:40;;;;;;;14.10;9.00;;;;;;;-2.64;76.71;100014.16;219119;1257;139912;-64
2023/02/23 05:28:45;;;;;;;15.80;10.60;;;;;;;-2.64;76.84;100013.45;218410;1260;160630;-63
2023/02/23 05:33:47;;;;;;;16.20;9.90;;;;;;;-2.64;76.94;100017.60;220020;1257;139705;-63
2023/02/23 05:38:49;;;;;;;17.80;9.20;;;;;;;-2.62;76.84;100009.80;220160;1257;139944;-65
2023/02/23 05:43:52;;;;;;;16.70;10.00;;;;;;;-2.59;76.96;100010.97;220317;1257;140115;-62
2023/02/23 05:48:59;;;;;;;23.80;11.40;;;;;;;-2.58;76.90;100009.95;220098;1257;140048;-63
2023/02/23 05:54:02;;;;;;;23.10;10.90;;;;;;;-2.53;76.90;100011.39;218831;1257;140365;-66
2023/02/23 05:59:05;;;;;;;24.20;10.40;;;;;;;-2.50;77.00;100008.85;218291;1258;139836;-66
2023/02/23 06:04:09;;;;;;;20.30;9.70;;;;;;;-2.45;77.00;100012.13;219162;1257;141521;-66
2023/02/23 06:09:13;;;;;;;21.10;10.20;;;;;;;-2.40;77.10;100013.42;218522;1257;139185;-66
2023/02/23 06:14:15;;;;;;;20.90;10.40;;;;;;;-2.32;77.08;100015.31;218840;1257;141151;-63
2023/02/23 06:19:20;;;;;;;18.20;10.40;;;;;;;-2.22;77.14;100012.34;217958;1261;140282;-64
2023/02/23 06:24:23;;;;;;;23.80;13.00;;;;;;;-2.13;77.20;100015.17;218041;1257;139829;-64
2023/02/23 06:29:26;;;;;;;22.60;13.00;;;;;;;-1.97;77.09;100015.23;217360;1260;140362;-64
2023/02/23 06:34:30;;;;;;;19.70;11.60;;;;;;;-1.90;76.99;100016.84;218177;1257;139925;-64
2023/02/23 06:39:35;;;;;;;17.70;8.90;;;;;;;-1.83;76.86;100016.64;217738;1260;139899;-63
2023/02/23 06:44:38;;;;;;;13.00;8.50;;;;;;;-1.74;76.93;100016.69;217440;1261;140438;-64
2023/02/23 06:49:41;;;;;;;22.50;11.70;;;;;;;-1.68;77.03;100021.13;218070;1257;139064;-65
2023/02/23 06:54:47;;;;;;;18.60;11.10;;;;;;;-1.56;76.86;100014.96;218862;1257;139619;-64
2023/02/23 06:59:52;;;;;;;26.10;11.30;;;;;;;-1.45;76.70;100010.18;219002;1256;140045;-65
2023/02/23 07:04:54;;;;;;;16.90;10.00;;;;;;;-1.29;76.58;100008.07;217753;1257;139980;-65
2023/02/23 07:09:57;;;;;;;26.00;12.00;;;;;;;-1.08;76.18;100009.97;217901;1257;140409;-65
2023/02/23 07:14:59;;;;;;;25.50;13.10;;;;;;;-0.90;76.09;100011.96;218725;1257;140821;-65
2023/02/23 07:20:03;;;;;;;24.90;11.40;;;;;;;-0.62;76.21;100006.29;217889;1257;140213;-64
2023/02/23 07:25:08;;;;;;;21.50;11.50;;;;;;;-0.38;75.66;100007.65;217639;1258;140344;-65
2023/02/23 07:30:11;;;;;;;18.00;11.40;;;;;;;-0.17;75.27;100003.45;220168;1257;140411;-67
2023/02/23 07:35:13;;;;;;;22.90;13.70;;;;;;;0.25;75.51;100004.57;220137;1257;139776;-67
2023/02/23 07:40:16;;;;;;;23.00;13.20;;;;;;;0.49;74.78;100000.27;218223;1257;139307;-69
2023/02/23 07:45:18;;;;;;;17.20;9.90;;;;;;;0.62;74.56;99995.22;219263;1257;139724;-67
2023/02/23 07:50:21;;;;;;;24.80;13.20;;;;;;;0.83;74.25;99990.82;218801;1257;140429;-65
2023/02/23 07:55:24;;;;;;;26.00;13.30;;;;;;;0.89;73.86;99993.38;217841;1257;140114;-64
2023/02/23 08:00:28;;;;;;;22.20;13.90;;;;;;;0.84;73.59;99989.48;218072;1257;139990;-66
2023/02/23 08:05:30;;;;;;;17.10;10.90;;;;;;;0.98;73.69;99988.48;217840;1258;139669;-66
2023/02/23 08:10:33;;;;;;;18.10;11.90;;;;;;;1.02;73.10;99982.97;217485;1257;139721;-64
2023/02/23 08:15:37;;;;;;;21.80;11.80;;;;;;;1.12;73.49;99979.61;218577;1260;139231;-65
2023/02/23 08:20:40;;;;;;;19.50;11.70;;;;;;;1.19;73.07;99977.92;217708;1257;139479;-65
2023/02/23 08:25:44;;;;;;;21.50;13.40;;;;;;;1.14;72.86;99977.70;217884;1257;139821;-65
2023/02/23 08:30:48;;;;;;;20.80;13.30;;;;;;;1.16;72.89;99974.29;217217;1260;758181;-63
2023/02/23 08:35:52;;;;;;;19.40;12.60;;;;;;;1.25;72.96;99973.50;217520;1257;164740;-64
2023/02/23 08:41:00;;;;;;;21.70;13.20;;;;;;;1.45;73.27;99966.21;218112;1257;139256;-64
2023/02/23 08:46:05;;;;;;;19.90;11.60;;;;;;;1.74;73.23;99961.88;217662;1257;139164;-64
2023/02/23 08:51:09;;;;;;;21.40;12.50;;;;;;;1.99;73.11;99958.52;217601;1257;140398;-65
2023/02/23 08:56:14;;;;;;;22.60;11.70;;;;;;;2.13;72.97;99951.42;218385;1258;139619;-65
2023/02/23 09:01:20;;;;;;;19.30;11.90;;;;;;;2.39;72.76;99945.64;218088;1256;231110;-66
2023/02/23 09:06:24;;;;;;;23.30;15.00;;;;;;;2.67;72.79;99944.96;217515;1260;139598;-66
2023/02/23 09:11:27;;;;;;;19.20;12.50;;;;;;;2.88;72.48;99939.00;218813;1257;138947;-67
2023/02/23 09:16:31;;;;;;;17.60;11.50;;;;;;;3.02;71.79;99930.67;217420;1260;139342;-65
2023/02/23 09:21:34;;;;;;;19.90;12.40;;;;;;;2.94;71.42;99923.42;220151;1256;139970;-66
2023/02/23 09:26:38;;;;;;;17.40;11.30;;;;;;;2.96;71.51;99920.79;219863;1257;139420;-69
2023/02/23 09:31:42;;;;;;;17.60;10.20;;;;;;;3.10;71.37;99917.96;218569;1257;139966;-70
2023/02/23 09:36:44;;;;;;;18.30;11.80;;;;;;;3.25;71.38;99914.61;218125;1258;140764;-69
2023/02/23 09:42:08;;;;;;;16.80;10.90;;;;;;;3.44;71.54;99910.70;217149;1257;139281;-69
2023/02/23 09:47:31;;;;;;;18.40;12.40;;;;;;;3.62;71.20;99910.44;217367;1257;139292;-68
2023/02/23 09:52:41;;;;;;;19.20;12.50;;;;;;;3.76;70.98;99911.06;217387;1260;141416;-66
2023/02/23 09:57:47;;;;;;;23.70;13.40;;;;;;;3.90;70.77;99902.02;218648;1257;140428;-66
2023/02/23 10:03:14;;;;;;;20.10;12.10;;;;;;;4.10;71.08;99897.34;218241;1257;139847;-66
2023/02/23 10:08:39;;;;;;;19.80;13.60;;;;;;;4.30;70.68;99889.11;218303;1258;138536;-68
2023/02/23 10:13:57;;;;;;;18.70;11.20;;;;;;;4.44;70.39;99875.52;217356;1257;139101;-67
2023/02/23 10:19:14;;;;;;;19.00;11.90;;;;;;;4.59;70.02;99869.72;217998;1258;139427;-66
2023/02/23 10:24:34;;;;;;;21.00;10.90;;;;;;;4.68;69.51;99867.95;217861;1257;139142;-67
2023/02/23 10:29:47;;;;;;;19.00;11.50;;;;;;;4.82;69.65;99861.59;217432;1257;139598;-68
2023/02/23 10:34:55;;;;;;;23.10;11.80;;;;;;;5.08;69.58;99858.96;217976;1257;139118;-68
2023/02/23 10:39:59;;;;;;;20.10;11.20;;;;;;;5.30;68.85;99850.59;217357;1257;139989;-67
2023/02/23 10:45:23;;;;;;;20.20;11.80;;;;;;;5.36;68.64;99838.98;217669;1258;140649;-68
2023/02/23 10:50:28;;;;;;;14.20;9.90;;;;;;;5.59;68.56;99835.15;217492;1256;140128;-68
2023/02/23 10:55:32;;;;;;;21.70;12.40;;;;;;;5.81;68.18;99823.67;217763;1258;138812;-69
2023/02/23 11:00:40;;;;;;;17.60;10.00;;;;;;;5.87;67.52;99813.35;217477;1258;139722;-68
2023/02/23 11:05:52;;;;;;;14.30;10.00;;;;;;;5.83;67.26;99802.67;217536;1258;139798;-68
2023/02/23 11:11:17;;;;;;;18.10;9.00;;;;;;;5.80;67.15;99795.11;217657;1258;139074;-69
2023/02/23 11:16:29;;;;;;;14.80;9.10;;;;;;;5.79;67.21;99783.48;220239;1257;139098;-69
2023/02/23 11:21:34;;;;;;;17.20;10.80;;;;;;;5.90;67.06;99780.09;219867;1258;139516;-70
2023/02/23 11:26:43;;;;;;;17.40;9.70;;;;;;;6.01;66.51;99773.83;219148;1257;139135;-72
2023/02/23 11:31:52;;;;;;;15.10;8.90;;;;;;;6.16;66.41;99765.98;219726;1257;139314;-72
2023/02/23 11:37:18;;;;;;;18.70;10.20;;;;;;;6.16;66.02;99754.95;217336;1260;139739;-70
2023/02/23 11:42:26;;;;;;;28.80;17.50;;;;;;;6.24;66.46;99750.91;217364;1257;139610;-71
2023/02/23 11:47:38;;;;;;;19.30;14.00;;;;;;;6.37;66.32;99743.64;217379;1260;138847;-71
2023/02/23 11:52:43;;;;;;;19.50;10.10;;;;;;;6.43;65.99;99740.08;217434;1260;139864;-70
2023/02/23 11:57:49;;;;;;;17.80;10.50;;;;;;;6.42;65.58;99730.80;217415;1260;139613;-70
2023/02/23 12:02:57;;;;;;;14.30;8.80;;;;;;;6.36;65.96;99730.21;217140;1258;139280;-71
2023/02/23 12:08:03;;;;;;;21.00;11.40;;;;;;;6.48;66.06;99719.45;217483;1260;139376;-70
2023/02/23 12:13:32;;;;;;;19.20;10.70;;;;;;;6.63;65.74;99711.59;217432;1258;138926;-70
2023/02/23 12:19:01;;;;;;;19.20;11.10;;;;;;;6.77;65.91;99709.08;217260;1260;139530;-70
2023/02/23 12:24:14;;;;;;;19.10;10.20;;;;;;;6.80;65.71;99704.41;217400;1258;139803;-69
2023/02/23 12:29:47;;;;;;;15.30;10.30;;;;;;;6.87;65.81;99696.55;217506;1260;140113;-70
2023/02/23 12:35:02;;;;;;;19.20;10.10;;;;;;;6.93;65.77;99686.42;218128;1260;138944;-71
2023/02/23 12:40:27;;;;;;;14.70;10.10;;;;;;;6.99;66.00;99675.96;217338;1260;138902;-71
2023/02/23 12:46:07;;;;;;;16.50;9.10;;;;;;;7.05;66.27;99670.04;217467;1258;138812;-71
2023/02/23 12:51:42;;;;;;;27.40;12.20;;;;;;;7.20;65.93;99662.98;218496;1258;139756;-72
2023/02/23 12:56:59;;;;;;;14.70;9.10;;;;;;;7.37;65.46;99660.27;217129;1257;139704;-71
2023/02/23 13:02:20;;;;;;;19.00;9.70;;;;;;;7.55;65.41;99652.60;218607;1258;140721;-72
2023/02/23 13:07:50;;;;;;;18.00;11.10;;;;;;;7.66;65.36;99650.23;217833;1258;140126;-73
2023/02/23 13:13:37;;;;;;;16.60;9.00;;;;;;;7.69;64.90;99641.52;218626;1257;139609;-74
2023/02/23 13:19:10;;;;;;;22.70;11.90;;;;;;;7.80;64.83;99635.18;218371;1257;139616;-71
2023/02/23 13:24:20;;;;;;;15.30;10.30;;;;;;;7.87;64.84;99622.34;219834;1258;140192;-71
2023/02/23 13:29:35;;;;;;;13.40;9.80;;;;;;;7.87;64.39;99611.07;218688;1257;139868;-71
2023/02/23 13:34:48;;;;;;;12.50;8.90;;;;;;;7.80;64.10;99610.08;217780;1257;139168;-68
2023/02/23 13:40:22;;;;;;;27.60;12.50;;;;;;;7.63;64.41;99599.47;217419;1257;138594;-71
2023/02/23 13:45:48;;;;;;;16.80;10.70;;;;;;;7.48;64.33;99592.73;218066;1257;142266;-67
2023/02/23 13:51:13;;;;;;;18.40;11.10;;;;;;;7.36;64.44;99592.98;218566;1258;139248;-68
2023/02/23 13:56:23;;;;;;;15.00;9.30;;;;;;;7.27;64.47;99594.00;218019;1260;139171;-68
2023/02/23 14:01:32;;;;;;;16.80;9.30;;;;;;;7.22;64.71;99593.42;217907;1257;138418;-71
2023/02/23 14:06:36;;;;;;;21.00;10.30;;;;;;;7.15;64.28;99590.41;217758;1258;139603;-69
2023/02/23 14:11:45;;;;;;;20.10;11.60;;;;;;;7.11;64.91;99589.10;217964;1260;139759;-71
2023/02/23 14:17:31;;;;;;;12.30;8.60;;;;;;;7.16;65.22;99585.96;217922;1258;139061;-69
2023/02/23 14:22:34;;;;;;;15.20;9.60;;;;;;;7.23;65.00;99584.44;217366;1257;138833;-68
2023/02/23 14:27:44;;;;;;;17.50;9.80;;;;;;;7.17;65.00;99583.42;218334;1257;139774;-70
2023/02/23 14:32:48;;;;;;;15.30;9.50;;;;;;;7.13;65.08;99578.48;217334;1257;139662;-68
2023/02/23 14:38:00;;;;;;;17.10;9.40;;;;;;;7.14;65.37;99581.33;217533;1260;139526;-70
2023/02/23 14:43:38;;;;;;;16.50;9.80;;;;;;;7.10;65.19;99573.73;217716;1257;140018;-65
2023/02/23 14:48:57;;;;;;;18.90;10.60;;;;;;;7.05;65.41;99571.29;218109;1257;139747;-68
2023/02/23 14:54:10;;;;;;;18.40;10.40;;;;;;;6.95;65.13;99569.36;217999;1258;139920;-67
2023/02/23 14:59:20;;;;;;;17.10;10.60;;;;;;;6.88;65.26;99557.84;219803;1257;139669;-68
2023/02/23 15:04:28;;;;;;;19.30;11.70;;;;;;;6.82;65.74;99549.96;217953;1258;139501;-66
2023/02/23 15:09:42;;;;;;;14.70;8.20;;;;;;;6.77;65.66;99543.88;219943;1257;140050;-68
2023/02/23 15:14:48;;;;;;;14.10;9.10;;;;;;;6.73;65.73;99540.94;220091;1258;140063;-68
2023/02/23 15:19:59;;;;;;;21.90;13.10;;;;;;;6.65;65.91;99536.12;219856;1258;140370;-70
2023/02/23 15:25:22;;;;;;;22.90;13.20;;;;;;;6.55;66.01;99534.21;218246;1258;139532;-68
2023/02/23 15:30:31;;;;;;;17.50;10.40;;;;;;;6.45;65.86;99526.73;217582;1258;139164;-68
2023/02/23 15:35:51;;;;;;;25.40;12.10;;;;;;;6.38;66.46;99521.66;218489;1258;139645;-67
2023/02/23 15:41:03;;;;;;;22.00;11.70;;;;;;;6.37;66.48;99512.58;218456;1257;139455;-69
2023/02/23 15:46:08;;;;;;;22.10;12.40;;;;;;;6.30;66.57;99511.89;218111;1260;139751;-70
2023/02/23 15:51:34;;;;;;;19.00;11.00;;;;;;;6.23;66.66;99506.30;217205;1261;138900;-70
2023/02/23 15:56:39;;;;;;;24.40;12.30;;;;;;;6.11;66.58;99498.30;216893;1257;150196;-74
2023/02/23 16:01:44;;;;;;;19.60;12.60;;;;;;;5.93;66.15;99499.52;218136;1258;138703;-69
2023/02/23 16:06:54;;;;;;;30.00;13.50;;;;;;;5.76;66.79;99496.55;216911;1261;140533;-69
2023/02/23 16:12:03;;;;;;;23.50;11.40;;;;;;;5.59;67.36;99495.64;216972;1257;138946;-70
2023/02/23 16:17:11;;;;;;;22.50;14.90;;;;;;;5.43;67.31;99490.27;217508;1258;139136;-68
2023/02/23 16:22:27;;;;;;;24.80;12.90;;;;;;;5.35;67.44;99492.40;217212;1261;140576;-67
2023/02/23 16:27:37;;;;;;;21.70;14.50;;;;;;;5.27;67.57;99494.60;219159;1258;140773;-73
2023/02/23 16:32:42;;;;;;;25.90;15.10;;;;;;;5.19;68.00;99488.09;217592;1258;140074;-76
2023/02/23 16:38:01;;;;;;;26.00;14.20;;;;;;;5.12;68.41;99486.92;217258;1258;140388;-65
2023/02/23 16:43:04;;;;;;;;;;;;;;;5.05;68.76;99482.94;218061;1258;139519;-69
2023/02/23 16:48:17;;;;;;;23.70;14.60;;;;;;;4.98;68.71;99480.13;217412;1261;125166;-74
2023/02/23 16:53:24;;;;;;;22.80;12.60;;;;;;;4.98;69.08;99476.23;218678;1258;139354;-72
2023/02/23 16:58:31;;;;;;;23.90;13.70;;;;;;;4.95;69.13;99469.48;217137;1261;139873;-70
2023/02/23 17:03:36;;;;;;;19.50;11.80;;;;;;;4.91;69.38;99466.20;220079;1257;139902;-73
2023/02/23 17:08:50;;;;;;;22.90;15.00;;;;;;;4.83;69.46;99463.54;220007;1261;140324;-79
2023/02/23 17:14:05;;;;;;;25.80;15.70;;;;;;;4.82;69.59;99459.44;218302;1257;139290;-74
2023/02/23 17:19:14;;;;;;;22.30;15.50;;;;;;;4.85;69.67;99458.55;219618;1258;140008;-72
2023/02/23 17:24:24;;;;;;;22.10;14.60;;;;;;;4.83;69.63;99449.65;217479;1260;140096;-74
2023/02/23 17:29:41;;;;;;;24.80;14.70;;;;;;;4.78;69.96;99444.16;218118;1257;139561;-71
2023/02/23 17:34:54;;;;;;;24.90;15.10;;;;;;;4.70;70.11;99435.09;217296;1258;139332;-70
2023/02/23 17:40:25;;;;;;;26.40;13.20;;;;;;;4.64;70.24;99426.45;217083;1258;139244;-71
2023/02/23 17:45:35;;;;;;;33.70;17.90;;;;;;;4.58;70.43;99423.21;217394;1258;139516;-67
2023/02/23 17:50:46;;;;;;;30.80;19.90;;;;;;;4.52;70.92;99418.83;218172;1257;230702;-69
2023/02/23 17:55:52;;;;;;;30.70;17.10;;;;;;;4.48;71.13;99419.59;217571;1261;139932;-65
2023/02/23 18:01:03;;;;;;;31.00;17.30;;;;;;;4.48;71.20;99417.40;217407;1259;236538;-64
2023/02/23 18:06:12;;;;;;;28.50;16.30;;;;;;;4.44;71.17;99415.45;217958;1257;139774;-70
2023/02/23 18:11:21;;;;;;;36.00;20.20;;;;;;;4.40;71.33;99408.52;217260;1261;140061;-70
2023/02/23 18:16:27;;;;;;;35.90;22.00;;;;;;;4.40;71.60;99400.10;217339;1259;140331;-67
2023/02/23 18:21:33;;;;;;;33.30;17.50;;;;;;;4.40;71.78;99394.09;217725;1261;140841;-72
2023/02/23 18:26:40;;;;;;;27.40;17.50;;;;;;;4.39;72.05;99392.95;217190;1259;140022;-71
2023/02/23 18:31:46;;;;;;;34.50;19.50;;;;;;;4.40;72.10;99391.17;217906;1259;139655;-70
2023/02/23 18:36:51;;;;;;;30.80;19.80;;;;;;;4.39;72.20;99388.94;217777;1258;139361;-69
2023/02/23 18:41:58;;;;;;;33.40;18.80;;;;;;;4.37;72.13;99385.68;217114;1256;139590;-69
2023/02/23 18:47:02;;;;;;;29.90;17.80;;;;;;;4.36;71.98;99384.38;217031;1258;139471;-69
2023/02/23 18:52:08;;;;;;;32.50;18.20;;;;;;;4.34;72.40;99377.28;217061;1259;140009;-69
2023/02/23 18:57:11;;;;;;;27.60;17.90;;;;;;;4.31;72.58;99373.63;219079;1259;139323;-73
2023/02/23 19:02:17;;;;;;;34.00;19.60;;;;;;;4.27;72.56;99370.67;220025;1258;139962;-73
2023/02/23 19:07:21;;;;;;;26.60;17.20;;;;;;;4.28;72.56;99366.94;220157;1261;140580;-74
2023/02/23 19:12:25;;;;;;;31.60;18.10;;;;;;;4.27;72.80;99357.11;219962;1258;140087;-73
2023/02/23 19:17:29;;;;;;;35.60;20.30;;;;;;;4.30;72.81;99355.20;219108;1258;139866;-73
2023/02/23 19:22:34;;;;;;;42.10;21.40;;;;;;;4.32;72.80;99350.44;218424;1259;140393;-72
2023/02/23 19:27:38;;;;;;;26.40;14.00;;;;;;;4.31;73.01;99344.06;217104;1259;138925;-71
2023/02/23 19:32:43;;;;;;;31.50;16.60;;;;;;;4.23;73.12;99334.52;217248;1259;139006;-70
2023/02/23 19:37:51;;;;;;;32.50;20.00;;;;;;;4.14;73.33;99332.73;217670;1261;139217;-71
2023/02/23 19:42:56;;;;;;;35.40;20.00;;;;;;;4.10;73.40;99324.77;217087;1259;141482;-72
2023/02/23 19:48:00;;;;;;;32.10;19.10;;;;;;;4.09;73.73;99317.70;218366;1257;140675;-71
2023/02/23 19:53:03;;;;;;;34.20;18.80;;;;;;;4.05;73.98;99312.75;217375;1258;140005;-71
2023/02/23 19:58:07;;;;;;;44.20;21.80;;;;;;;4.00;74.07;99307.27;217307;1259;139381;-71
2023/02/23 20:03:13;;;;;;;51.30;22.60;;;;;;;3.97;74.08;99303.05;217553;1258;138909;-71
2023/02/23 20:08:18;;;;;;;43.00;22.90;;;;;;;3.96;74.07;99297.30;217339;1261;140554;-71
2023/02/23 20:13:23;;;;;;;42.00;23.20;;;;;;;3.95;74.29;99295.15;217583;1258;139523;-68
2023/02/23 20:18:27;;;;;;;36.70;21.70;;;;;;;3.91;74.42;99286.19;217924;1259;139693;-68
2023/02/23 20:23:32;;;;;;;39.20;22.00;;;;;;;3.85;74.58;99285.45;218000;1261;139184;-68
2023/02/23 20:28:38;;;;;;;42.00;22.70;;;;;;;3.83;74.70;99279.88;218032;1259;141589;-68
2023/02/23 20:33:43;;;;;;;49.70;22.80;;;;;;;3.82;74.99;99275.10;217627;1259;561705;-67
2023/02/23 20:38:46;;;;;;;40.80;20.60;;;;;;;3.83;75.23;99276.08;217403;1259;140058;-68
2023/02/23 20:43:50;;;;;;;43.90;22.40;;;;;;;3.81;75.25;99263.78;218409;1257;139368;-68
2023/02/23 20:48:56;;;;;;;41.90;25.00;;;;;;;3.79;75.31;99255.06;218944;1257;139877;-68
2023/02/23 20:54:00;;;;;;;38.50;23.30;;;;;;;3.79;75.33;99246.25;219876;1257;140217;-69
2023/02/23 20:59:04;;;;;;;38.00;21.20;;;;;;;3.77;75.51;99241.99;220092;1257;139914;-68
2023/02/23 21:04:07;;;;;;;42.30;24.20;;;;;;;3.83;75.82;99245.13;220124;1258;139735;-68
2023/02/23 21:09:16;;;;;;;41.70;23.40;;;;;;;3.93;75.81;99240.98;219968;1259;139666;-68
2023/02/23 21:14:20;;;;;;;48.50;24.80;;;;;;;4.05;75.95;99234.48;219301;1261;140085;-67
2023/02/23 21:19:24;;;;;;;43.20;25.50;;;;;;;4.11;75.98;99227.89;219546;1261;139521;-67
2023/02/23 21:24:29;;;;;;;41.70;25.40;;;;;;;4.16;75.95;99220.39;217805;1257;139120;-68
2023/02/23 21:29:33;;;;;;;58.80;29.40;;;;;;;4.22;76.09;99215.88;217352;1258;140127;-67
2023/02/23 21:34:37;;;;;;;47.10;27.20;;;;;;;4.28;76.05;99211.66;218753;1257;140124;-68
2023/02/23 21:39:40;;;;;;;60.80;30.80;;;;;;;4.36;76.42;99205.88;217357;1261;141035;-68
2023/02/23 21:44:44;;;;;;;43.80;27.40;;;;;;;4.44;76.59;99200.95;218655;1261;139931;-67
2023/02/23 21:49:48;;;;;;;52.30;31.50;;;;;;;4.50;76.56;99192.82;217468;1261;139055;-67
2023/02/23 21:54:51;;;;;;;57.80;27.80;;;;;;;4.55;76.86;99187.28;217927;1261;139536;-68
2023/02/23 21:59:54;;;;;;;43.40;27.40;;;;;;;4.63;76.54;99181.01;217661;1261;140513;-67
2023/02/23 22:04:59;;;;;;;38.90;27.10;;;;;;;4.68;76.92;99174.45;217379;1257;140034;-69
2023/02/23 22:10:05;;;;;;;51.40;26.80;;;;;;;4.73;76.85;99168.23;217966;1260;139126;-71
2023/02/23 22:15:11;;;;;;;44.00;25.80;;;;;;;4.76;76.85;99166.83;217830;1261;139140;-71
2023/02/23 22:20:18;;;;;;;52.60;28.90;;;;;;;4.79;77.13;99161.70;218624;1257;139731;-69
2023/02/23 22:25:21;;;;;;;42.80;25.70;;;;;;;4.84;77.13;99157.33;217801;1261;140241;-69
2023/02/23 22:30:27;;;;;;;51.20;28.70;;;;;;;4.92;77.36;99150.80;217329;1261;139514;-69
2023/02/23 22:35:31;;;;;;;50.80;28.10;;;;;;;4.97;77.21;99141.72;218272;1261;141464;-69
2023/02/23 22:40:46;;;;;;;52.20;30.00;;;;;;;4.99;77.32;99133.98;218848;1257;138899;-68
2023/02/23 22:45:55;;;;;;;48.70;27.70;;;;;;;5.03;77.26;99131.20;218219;1257;140059;-68
2023/02/23 22:50:59;;;;;;;51.40;28.60;;;;;;;5.05;77.44;99125.41;219769;1257;140536;-69
2023/02/23 22:56:02;;;;;;;49.60;27.70;;;;;;;5.14;77.32;99121.39;220190;1257;140625;-70
2023/02/23 23:01:09;;;;;;;50.60;26.60;;;;;;;5.21;77.45;99116.15;219342;1257;139179;-69
2023/02/23 23:06:21;;;;;;;51.70;28.80;;;;;;;5.27;77.29;99119.23;218654;1261;139429;-69
2023/02/23 23:11:28;;;;;;;55.90;27.90;;;;;;;5.30;77.43;99114.13;217838;1258;140669;-70
2023/02/23 23:16:33;;;;;;;56.60;26.70;;;;;;;5.34;77.43;99100.72;217945;1257;139835;-68
2023/02/23 23:21:38;;;;;;;45.50;26.20;;;;;;;5.38;77.21;99093.77;218072;1258;140679;-68
2023/02/23 23:26:43;;;;;;;49.40;27.60;;;;;;;5.35;77.73;99085.38;217555;1258;141420;-68
2023/02/23 23:31:47;;;;;;;56.30;29.90;;;;;;;5.33;77.39;99077.91;218218;1262;140247;-68
2023/02/23 23:36:51;;;;;;;53.10;32.90;;;;;;;5.36;77.48;99076.35;218123;1257;138842;-68
2023/02/23 23:41:56;;;;;;;44.30;25.70;;;;;;;5.46;77.79;99067.45;218024;1258;139465;-68
2023/02/23 23:47:10;;;;;;;51.00;29.90;;;;;;;5.53;77.75;99059.02;217290;1257;139449;-66
2023/02/23 23:52:16;;;;;;;48.60;32.10;;;;;;;5.57;78.12;99058.17;217362;1257;139284;-67
2023/02/23 23:57:20;;;;;;;50.10;29.10;;;;;;;5.58;78.04;99049.05;217386;1257;139699;-67
